Time;durP1;ratioP1;P1;durP2;ratioP2;P2;SDS_P1;SDS_P2;PMS_P1;PMS_P2;Temp;Humidity;BMP_temperature;BMP_pressure;BME280_temperature;BME280_humidity;BME280_pressure;Samples;Min_cycle;Max_cycle;Signal;HPM_P1;HPM_P2
2023/04/28 00:01:50;;;;;;;3.83;2.80;;;;;;;7.09;38.95;94054.66;4967564;28;20120;-75
2023/04/28 00:04:15;;;;;;;5.07;3.15;;;;;;;7.11;38.86;94063.09;4964143;28;20041;-77
2023/04/28 00:06:41;;;;;;;6.78;3.10;;;;;;;7.08;39.06;94047.81;4966155;28;20446;-79
2023/04/28 00:09:09;;;;;;;4.75;2.90;;;;;;;7.08;38.84;94062.88;4964671;28;20027;-78
2023/04/28 00:11:37;;;;;;;4.18;3.03;;;;;;;7.13;38.92;94060.97;4964673;28;20342;-76
2023/04/28 00:14:03;;;;;;;3.72;2.97;;;;;;;7.23;38.62;94057.41;4966441;28;20129;-78
2023/04/28 00:16:28;;;;;;;6.90;2.88;;;;;;;7.23;38.53;94041.53;4965253;28;20253;-77
2023/04/28 00:18:53;;;;;;;5.40;2.78;;;;;;;7.22;38.66;94053.97;4976348;28;21001;-75
2023/04/28 00:21:19;;;;;;;6.90;2.72;;;;;;;6.82;39.10;94039.41;4985254;28;20046;-77
2023/04/28 00:23:44;;;;;;;3.53;2.28;;;;;;;7.09;39.27;94053.88;4970178;28;20066;-78
2023/04/28 00:26:11;;;;;;;8.00;3.03;;;;;;;7.24;38.78;94056.31;4967016;28;20046;-78
2023/04/28 00:28:36;;;;;;;4.70;3.10;;;;;;;6.70;39.77;94036.38;4957611;28;20685;-78
2023/04/28 00:31:11;;;;;;;9.25;3.92;;;;;;;6.18;40.12;94020.59;4967684;28;20102;-78
2023/04/28 00:33:37;;;;;;;8.27;3.20;;;;;;;6.52;39.89;94065.41;4965222;28;20042;-79
2023/04/28 00:36:02;;;;;;;7.82;3.28;;;;;;;6.70;39.78;94059.41;4974043;28;21343;-78
2023/04/28 00:38:28;;;;;;;3.33;2.83;;;;;;;6.57;39.67;94047.63;4972020;28;20035;-76
2023/04/28 00:40:53;;;;;;;9.63;3.17;;;;;;;6.55;39.89;94056.94;4965453;28;20071;-78
2023/04/28 00:43:19;;;;;;;3.75;3.33;;;;;;;6.43;40.00;94071.31;4967195;28;20034;-78
2023/04/28 00:45:44;;;;;;;3.65;2.53;;;;;;;6.57;39.74;94066.13;4966641;28;20041;-78
2023/04/28 00:48:12;;;;;;;4.28;3.15;;;;;;;6.48;39.68;94059.91;4962297;28;20466;-75
2023/04/28 00:50:38;;;;;;;4.18;2.72;;;;;;;6.26;40.21;94067.53;4965918;28;20062;-78
2023/04/28 00:53:03;;;;;;;5.32;3.08;;;;;;;6.34;40.86;94074.84;4964977;28;20046;-79
2023/04/28 00:55:32;;;;;;;9.02;3.20;;;;;;;6.31;40.38;94075.41;4961834;28;20046;-78
2023/04/28 00:57:58;;;;;;;4.63;3.85;;;;;;;6.09;40.18;94056.56;4963930;28;20134;-79
2023/04/28 01:00:23;;;;;;;6.93;3.05;;;;;;;6.07;40.05;94058.72;4965896;28;20026;-77
2023/04/28 01:02:50;;;;;;;5.28;3.03;;;;;;;6.29;40.23;94075.69;4964361;28;20085;-77
2023/04/28 01:05:17;;;;;;;5.05;2.75;;;;;;;6.40;40.30;94085.09;4964545;28;20094;-79
2023/04/28 01:07:42;;;;;;;7.20;2.85;;;;;;;6.29;39.88;94064.31;4965391;28;20054;-78
2023/04/28 01:10:08;;;;;;;4.47;2.83;;;;;;;6.34;39.71;94082.78;4964762;28;20038;-78
2023/04/28 01:12:33;;;;;;;5.95;3.67;;;;;;;6.29;39.72;94061.69;4963959;28;20661;-78
2023/04/28 01:15:00;;;;;;;5.18;2.45;;;;;;;6.33;39.30;94062.69;4964952;28;20034;-77
2023/04/28 01:17:26;;;;;;;4.80;2.72;;;;;;;6.32;38.95;94047.91;4964667;28;20130;-77
2023/04/28 01:19:52;;;;;;;5.07;2.90;;;;;;;6.51;39.06;94061.97;4966064;28;20584;-79
2023/04/28 01:22:17;;;;;;;4.38;3.13;;;;;;;6.67;38.88;94075.81;4974197;28;20038;-76
2023/04/28 01:24:43;;;;;;;7.22;3.38;;;;;;;6.28;39.14;94086.53;4979823;28;20061;-78
2023/04/28 01:27:08;;;;;;;3.08;2.70;;;;;;;6.10;39.87;94085.34;4981355;28;20107;-78
2023/04/28 01:29:33;;;;;;;8.00;3.20;;;;;;;6.07;39.51;94064.75;4967430;28;20046;-78
2023/04/28 01:31:59;;;;;;;6.53;3.28;;;;;;;6.26;39.60;94084.16;4966777;28;20039;-78
2023/04/28 01:34:25;;;;;;;5.13;2.97;;;;;;;6.19;39.23;94064.44;4968744;28;20070;-78
2023/04/28 01:36:50;;;;;;;6.60;3.47;;;;;;;6.41;38.94;94084.00;4957722;28;20043;-78
2023/04/28 01:39:16;;;;;;;9.88;3.30;;;;;;;6.41;38.82;94081.34;4976690;28;20120;-76
2023/04/28 01:41:42;;;;;;;6.60;3.30;;;;;;;6.30;39.09;94079.91;4964627;28;20022;-78
2023/04/28 01:44:07;;;;;;;8.23;3.38;;;;;;;6.21;39.25;94075.50;4964766;28;20106;-78
2023/04/28 01:46:33;;;;;;;5.05;3.40;;;;;;;5.93;39.40;94069.91;4967010;28;20114;-78
2023/04/28 01:48:59;;;;;;;11.02;3.75;;;;;;;6.12;39.69;94066.56;4962642;28;20049;-76
2023/04/28 01:51:25;;;;;;;9.10;2.88;;;;;;;5.94;39.73;94091.81;4965343;28;20038;-78
2023/04/28 01:53:51;;;;;;;4.55;2.78;;;;;;;5.88;40.08;94082.34;4964683;28;20026;-78
2023/04/28 01:56:16;;;;;;;4.68;3.08;;;;;;;5.87;40.20;94086.84;4965897;28;20042;-78
2023/04/28 01:58:42;;;;;;;5.32;3.08;;;;;;;5.69;40.72;94057.69;4963452;28;20069;-78
2023/04/28 02:01:07;;;;;;;9.52;3.40;;;;;;;5.92;40.25;94070.19;4963785;28;20050;-79
2023/04/28 02:03:32;;;;;;;4.35;2.90;;;;;;;6.11;40.21;94079.00;4964979;28;20122;-78
2023/04/28 02:05:58;;;;;;;5.80;3.17;;;;;;;6.26;40.26;94080.75;4964441;28;20030;-76
2023/04/28 02:08:23;;;;;;;4.18;3.08;;;;;;;6.23;39.95;94074.16;4979527;28;20057;-77
2023/04/28 02:10:48;;;;;;;8.32;3.05;;;;;;;6.12;40.08;94077.13;4962905;28;20050;-79
2023/04/28 02:13:15;;;;;;;4.93;3.25;;;;;;;5.94;40.50;94065.41;4972130;28;20042;-77
2023/04/28 02:15:42;;;;;;;4.55;2.95;;;;;;;6.20;40.17;94089.78;4968261;28;20076;-79
2023/04/28 02:18:07;;;;;;;4.13;2.92;;;;;;;6.29;40.09;94096.81;4972794;28;20062;-77
2023/04/28 02:20:33;;;;;;;6.40;3.42;;;;;;;6.16;40.25;94091.41;4972187;28;20066;-78
2023/04/28 02:22:58;;;;;;;6.53;3.15;;;;;;;6.26;39.83;94094.72;4966543;28;20058;-78
2023/04/28 02:25:24;;;;;;;2.83;2.63;;;;;;;5.85;40.03;94057.31;4969343;28;20043;-78
2023/04/28 02:27:49;;;;;;;7.93;3.17;;;;;;;6.23;40.15;94099.78;4980572;28;20993;-76
2023/04/28 02:30:15;;;;;;;3.92;3.10;;;;;;;6.41;40.04;94104.34;4999842;28;20284;-77
2023/04/28 02:32:40;;;;;;;5.97;2.83;;;;;;;6.37;39.79;94079.56;4972679;28;20392;-79
2023/04/28 02:35:06;;;;;;;5.55;2.70;;;;;;;6.48;39.51;94081.03;4968499;28;20034;-78
2023/04/28 02:37:31;;;;;;;6.22;2.70;;;;;;;6.46;39.61;94103.53;4973249;28;20085;-77
2023/04/28 02:39:57;;;;;;;3.72;2.80;;;;;;;6.42;39.57;94104.06;4973243;28;20046;-80
2023/04/28 02:42:22;;;;;;;4.00;2.95;;;;;;;6.46;39.53;94101.66;4978987;28;20100;-80
2023/04/28 02:44:50;;;;;;;9.63;4.10;;;;;;;6.38;39.71;94103.06;4974018;28;20093;-78
2023/04/28 02:47:16;;;;;;;6.07;2.85;;;;;;;6.42;39.65;94113.84;4975115;28;20069;-79
2023/04/28 02:49:41;;;;;;;3.67;3.05;;;;;;;6.44;39.67;94111.72;4974551;28;20039;-79
2023/04/28 02:52:07;;;;;;;4.03;3.03;;;;;;;6.26;39.67;94104.53;4971486;28;20314;-78
2023/04/28 02:54:34;;;;;;;5.93;3.80;;;;;;;6.29;39.80;94106.59;4976426;28;20083;-79
2023/04/28 02:57:00;;;;;;;8.07;3.28;;;;;;;6.17;40.17;94114.09;4973549;28;20381;-79
2023/04/28 02:59:26;;;;;;;3.97;2.95;;;;;;;6.10;39.72;94095.13;4973045;28;20058;-78
2023/04/28 03:01:51;;;;;;;14.13;4.00;;;;;;;6.05;39.71;94109.16;4971457;28;20050;-79
2023/04/28 03:04:17;;;;;;;7.45;2.90;;;;;;;5.90;39.74;94107.44;4974269;28;20107;-78
2023/04/28 03:06:43;;;;;;;3.88;2.40;;;;;;;5.73;40.09;94109.66;4989427;28;20601;-79
2023/04/28 03:09:09;;;;;;;6.60;3.65;;;;;;;5.66;40.30;94111.03;4972042;28;20046;-76
2023/04/28 03:11:35;;;;;;;5.88;3.25;;;;;;;5.57;40.61;94124.03;4971956;28;20117;-77
2023/04/28 03:14:01;;;;;;;3.97;3.00;;;;;;;5.69;40.62;94126.31;4973314;28;20046;-77
2023/04/28 03:16:26;;;;;;;6.70;3.38;;;;;;;5.66;40.34;94124.22;4972345;28;20042;-79
2023/04/28 03:18:52;;;;;;;10.77;2.83;;;;;;;5.57;40.36;94090.53;4970911;28;20982;-78
2023/04/28 03:21:17;;;;;;;6.88;3.38;;;;;;;5.85;39.89;94138.34;4972117;28;20051;-79
2023/04/28 03:23:43;;;;;;;5.55;3.00;;;;;;;5.75;40.35;94141.84;4970727;28;20023;-78
2023/04/28 03:26:08;;;;;;;4.57;3.17;;;;;;;5.57;40.08;94116.13;4974206;28;20049;-79
2023/04/28 03:28:34;;;;;;;4.75;2.83;;;;;;;5.70;40.06;94141.88;4970995;28;20507;-78
2023/04/28 03:31:00;;;;;;;6.20;3.38;;;;;;;5.52;40.12;94127.50;4980125;28;20034;-78
2023/04/28 03:33:25;;;;;;;9.15;3.20;;;;;;;5.53;40.36;94150.16;4986915;28;20022;-76
2023/04/28 03:35:52;;;;;;;4.70;3.17;;;;;;;5.41;40.54;94157.63;4980565;28;20066;-78
2023/04/28 03:38:17;;;;;;;4.07;3.42;;;;;;;5.39;40.73;94140.47;4969941;28;20362;-78
2023/04/28 03:40:43;;;;;;;5.18;2.95;;;;;;;5.42;40.60;94138.09;4971112;28;20086;-79
2023/04/28 03:43:08;;;;;;;5.82;3.28;;;;;;;5.58;40.13;94165.16;4968927;28;21035;-78
2023/04/28 03:45:33;;;;;;;4.05;3.15;;;;;;;5.62;40.18;94154.88;4969851;28;20026;-80
2023/04/28 03:47:59;;;;;;;5.35;3.13;;;;;;;5.55;40.05;94152.53;4969087;28;20494;-77
2023/04/28 03:50:24;;;;;;;4.80;3.38;;;;;;;5.69;40.12;94164.06;4970626;28;20031;-79
2023/04/28 03:52:50;;;;;;;5.93;3.40;;;;;;;5.50;40.17;94171.03;4978723;28;20129;-79
2023/04/28 03:55:15;;;;;;;5.47;3.38;;;;;;;5.41;40.28;94170.03;4975563;28;20596;-80
2023/04/28 03:57:41;;;;;;;4.50;2.88;;;;;;;5.36;40.36;94165.56;4974133;28;20042;-78
2023/04/28 04:00:07;;;;;;;4.55;3.42;;;;;;;5.37;40.21;94182.19;4973420;28;20468;-79
2023/04/28 04:02:33;;;;;;;6.97;3.55;;;;;;;5.46;40.27;94183.19;4973924;28;20121;-78
2023/04/28 04:04:58;;;;;;;4.38;2.97;;;;;;;5.51;40.21;94188.44;4972711;28;20082;-79
2023/04/28 04:07:28;;;;;;;3.85;2.88;;;;;;;5.45;40.10;94186.88;4967239;28;20027;-77
2023/04/28 04:09:54;;;;;;;6.68;3.13;;;;;;;5.45;40.10;94194.78;4973135;28;20350;-78
2023/04/28 04:12:19;;;;;;;5.72;2.90;;;;;;;5.25;40.08;94179.06;4973614;28;20027;-77
2023/04/28 04:14:45;;;;;;;4.22;2.72;;;;;;;5.35;39.95;94179.00;4973056;28;20110;-80
2023/04/28 04:17:10;;;;;;;4.55;3.17;;;;;;;5.55;40.55;94184.19;4971808;28;20583;-79
2023/04/28 04:19:36;;;;;;;6.68;3.25;;;;;;;5.87;39.52;94191.66;4966272;28;20438;-79
2023/04/28 04:22:01;;;;;;;6.05;3.70;;;;;;;5.89;39.46;94192.16;4964894;28;20059;-78
2023/04/28 04:24:26;;;;;;;9.52;4.00;;;;;;;6.02;39.41;94202.91;4970375;28;20030;-80
2023/04/28 04:26:52;;;;;;;4.72;3.13;;;;;;;6.12;39.43;94211.81;4967632;28;20019;-79
2023/04/28 04:29:17;;;;;;;3.35;2.65;;;;;;;6.07;39.31;94206.59;4970257;28;20135;-79
2023/04/28 04:31:44;;;;;;;6.80;3.60;;;;;;;6.10;38.64;94200.75;4968438;28;20050;-79
2023/04/28 04:34:10;;;;;;;8.13;3.60;;;;;;;6.06;39.18;94191.81;4976254;28;20035;-77
2023/04/28 04:36:35;;;;;;;5.68;2.85;;;;;;;6.07;39.20;94212.63;4982633;28;20034;-78
2023/04/28 04:39:00;;;;;;;7.65;2.53;;;;;;;6.22;39.32;94198.56;4983006;28;20025;-76
2023/04/28 04:41:26;;;;;;;4.35;2.60;;;;;;;6.15;39.38;94213.91;4979456;28;20046;-78
2023/04/28 04:43:51;;;;;;;3.45;2.80;;;;;;;6.21;39.28;94187.22;4973275;28;20030;-78
2023/04/28 04:46:17;;;;;;;5.25;3.13;;;;;;;6.30;39.08;94185.56;4972476;28;20037;-77
2023/04/28 04:48:42;;;;;;;6.20;3.63;;;;;;;6.41;38.99;94212.66;4974160;28;20141;-79
2023/04/28 04:51:08;;;;;;;4.05;3.47;;;;;;;6.33;39.03;94222.00;4973493;28;20086;-77
2023/04/28 04:53:33;;;;;;;5.40;3.35;;;;;;;6.18;39.92;94210.75;4973011;28;20102;-78
2023/04/28 04:55:59;;;;;;;8.27;3.40;;;;;;;6.14;39.53;94202.56;4970877;28;20325;-78
2023/04/28 04:58:24;;;;;;;4.15;3.10;;;;;;;6.07;39.42;94201.31;4979112;28;20096;-76
2023/04/28 05:00:50;;;;;;;6.05;3.45;;;;;;;6.53;39.50;94214.97;4978192;28;20055;-78
2023/04/28 05:03:16;;;;;;;6.35;3.55;;;;;;;6.70;39.16;94225.94;4967923;28;20027;-78
2023/04/28 05:05:41;;;;;;;2.67;2.30;;;;;;;6.53;39.36;94204.38;4992861;28;20037;-77
2023/04/28 05:08:07;;;;;;;3.53;2.97;;;;;;;6.77;38.91;94243.03;4991701;28;20041;-78
2023/04/28 05:10:32;;;;;;;4.05;2.80;;;;;;;6.70;39.39;94236.50;4991219;28;20056;-78
2023/04/28 05:12:58;;;;;;;5.55;3.10;;;;;;;6.82;39.26;94235.06;4991376;28;20051;-79
2023/04/28 05:15:23;;;;;;;3.10;2.63;;;;;;;6.72;39.43;94227.22;4993352;28;20138;-78
2023/04/28 05:17:49;;;;;;;8.93;3.35;;;;;;;7.02;39.23;94227.97;4987607;28;20301;-78
2023/04/28 05:20:14;;;;;;;10.10;3.58;;;;;;;7.25;39.09;94221.91;4980179;28;20070;-78
2023/04/28 05:22:40;;;;;;;4.78;3.42;;;;;;;7.53;38.48;94244.84;4980625;28;20049;-80
2023/04/28 05:25:06;;;;;;;7.18;2.58;;;;;;;7.34;38.41;94224.75;4986005;28;20109;-79
2023/04/28 05:27:31;;;;;;;5.10;2.92;;;;;;;7.40;38.18;94237.59;4985407;28;20022;-78
2023/04/28 05:29:58;;;;;;;6.07;3.40;;;;;;;7.55;38.24;94245.38;4986753;28;20275;-79
2023/04/28 05:32:24;;;;;;;6.90;3.40;;;;;;;7.58;38.45;94246.69;4986801;28;20037;-79
2023/04/28 05:34:49;;;;;;;6.45;3.28;;;;;;;7.69;37.86;94233.03;4983384;28;21264;-79
2023/04/28 05:37:15;;;;;;;7.00;2.95;;;;;;;7.84;38.06;94229.41;4987111;28;20038;-78
2023/04/28 05:39:40;;;;;;;4.95;3.00;;;;;;;7.75;37.30;94230.34;4992438;28;20038;-78
2023/04/28 05:42:05;;;;;;;4.97;2.60;;;;;;;7.87;37.66;94222.78;5002211;28;20113;-77
2023/04/28 05:44:31;;;;;;;7.53;2.80;;;;;;;7.86;38.01;94232.56;5009524;28;20049;-79
2023/04/28 05:46:56;;;;;;;3.88;3.17;;;;;;;7.73;37.33;94196.19;4987265;28;20054;-78
2023/04/28 05:49:22;;;;;;;5.35;2.95;;;;;;;7.85;37.06;94225.69;4988850;28;20653;-79
2023/04/28 05:51:47;;;;;;;6.22;3.30;;;;;;;7.94;37.85;94237.22;4987014;28;20121;-78
2023/04/28 05:54:12;;;;;;;9.00;3.63;;;;;;;7.64;37.52;94225.13;4985966;28;20488;-79
2023/04/28 05:56:38;;;;;;;6.72;3.30;;;;;;;7.49;37.33;94227.97;4985965;28;20081;-78
2023/04/28 05:59:03;;;;;;;19.83;5.03;;;;;;;7.57;37.70;94240.59;4983313;28;20050;-78
2023/04/28 06:01:30;;;;;;;10.48;3.67;;;;;;;7.76;37.58;94232.72;4980899;28;20160;-79
2023/04/28 06:03:57;;;;;;;10.57;4.25;;;;;;;7.43;37.87;94205.31;4985219;28;20034;-79
2023/04/28 06:06:23;;;;;;;7.20;3.88;;;;;;;7.49;37.62;94232.47;4980831;28;20053;-79
2023/04/28 06:08:48;;;;;;;8.13;2.70;;;;;;;7.58;38.10;94244.78;4984363;28;20179;-79
2023/04/28 06:11:14;;;;;;;3.80;2.90;;;;;;;7.62;37.03;94227.31;4986251;28;20467;-79
2023/04/28 06:13:39;;;;;;;10.63;3.58;;;;;;;7.59;37.55;94233.16;4988858;28;20063;-78
2023/04/28 06:16:06;;;;;;;6.03;3.90;;;;;;;7.80;37.63;94232.91;4986644;28;20042;-78
2023/04/28 06:18:31;;;;;;;7.65;2.90;;;;;;;7.69;37.30;94222.44;4987229;28;20034;-78
2023/04/28 06:20:57;;;;;;;6.90;3.13;;;;;;;7.80;37.18;94238.22;4987757;28;20105;-78
2023/04/28 06:23:22;;;;;;;6.32;2.88;;;;;;;7.76;37.46;94242.50;4988879;28;20547;-79
2023/04/28 06:25:48;;;;;;;3.50;3.20;;;;;;;7.85;37.07;94230.22;5001284;28;20306;-78
2023/04/28 06:28:13;;;;;;;5.10;3.22;;;;;;;7.83;36.48;94242.94;4989657;28;20069;-78
2023/04/28 06:30:39;;;;;;;6.07;5.20;;;;;;;7.67;36.56;94245.78;4987244;28;20045;-78
2023/04/28 06:33:04;;;;;;;4.50;3.72;;;;;;;7.89;36.02;94229.34;4989668;28;20045;-79
2023/04/28 06:35:30;;;;;;;3.65;3.00;;;;;;;7.88;36.54;94225.13;4989392;28;20489;-78
2023/04/28 06:37:55;;;;;;;5.10;3.25;;;;;;;8.22;37.40;94235.50;4990421;28;20535;-78
2023/04/28 06:40:21;;;;;;;5.22;3.45;;;;;;;8.33;36.14;94236.94;4985756;28;20700;-79
2023/04/28 06:42:46;;;;;;;6.47;3.00;;;;;;;8.27;35.18;94200.97;4980844;28;20089;-80
2023/04/28 06:45:12;;;;;;;5.28;3.30;;;;;;;8.58;35.09;94233.88;4991238;28;20064;-79
2023/04/28 06:47:39;;;;;;;9.57;3.55;;;;;;;8.18;36.31;94231.84;5009010;28;20054;-77
2023/04/28 06:50:06;;;;;;;7.50;3.03;;;;;;;8.19;34.72;94206.94;4991301;28;20037;-78
2023/04/28 06:52:31;;;;;;;5.95;3.30;;;;;;;8.41;34.86;94230.97;4986277;28;20046;-77
2023/04/28 06:54:57;;;;;;;8.68;3.72;;;;;;;8.32;35.88;94219.44;4987504;28;20111;-77
2023/04/28 06:57:22;;;;;;;4.70;2.97;;;;;;;8.10;36.92;94221.91;4988080;28;20454;-77
2023/04/28 06:59:48;;;;;;;6.70;4.22;;;;;;;8.33;36.71;94231.63;4988939;28;20442;-76
2023/04/28 07:02:13;;;;;;;3.70;3.05;;;;;;;8.33;37.53;94205.13;4987413;28;20039;-77
2023/04/28 07:04:39;;;;;;;6.65;3.63;;;;;;;8.72;36.87;94225.19;4987611;28;20041;-77
2023/04/28 07:07:08;;;;;;;8.60;3.65;;;;;;;8.77;36.52;94217.13;4997457;28;20041;-77
2023/04/28 07:09:35;;;;;;;8.85;3.58;;;;;;;8.94;36.27;94236.75;4994739;28;20026;-79
2023/04/28 07:12:00;;;;;;;9.63;3.30;;;;;;;9.05;36.41;94232.03;4994863;28;20049;-79
2023/04/28 07:14:25;;;;;;;4.65;2.80;;;;;;;9.11;35.37;94217.63;4991607;28;20042;-78
2023/04/28 07:16:51;;;;;;;10.57;4.00;;;;;;;9.02;35.57;94198.13;4990308;28;20034;-78
2023/04/28 07:19:16;;;;;;;7.85;3.45;;;;;;;8.78;35.47;94189.53;4987997;28;20042;-78
2023/04/28 07:21:42;;;;;;;7.18;3.88;;;;;;;9.04;36.84;94219.84;4977130;28;20512;-78
2023/04/28 07:24:07;;;;;;;11.45;3.28;;;;;;;9.21;35.65;94209.47;4989452;28;20030;-77
2023/04/28 07:26:33;;;;;;;5.03;2.80;;;;;;;9.18;34.22;94207.41;4988211;28;20401;-75
2023/04/28 07:28:58;;;;;;;7.28;3.10;;;;;;;9.25;34.03;94207.78;4989216;28;20042;-78
2023/04/28 07:31:23;;;;;;;5.78;2.83;;;;;;;9.31;33.80;94209.28;4988345;28;20325;-79
2023/04/28 07:33:49;;;;;;;6.75;3.00;;;;;;;9.39;34.68;94199.81;4986655;28;20183;-77
2023/04/28 07:36:15;;;;;;;7.90;2.83;;;;;;;9.88;34.54;94212.34;4985178;28;20030;-79
2023/04/28 07:38:40;;;;;;;5.25;2.90;;;;;;;9.67;33.97;94190.78;4985965;28;20030;-79
2023/04/28 07:41:06;;;;;;;3.85;3.05;;;;;;;9.50;34.34;94211.81;4988007;28;20040;-78
2023/04/28 07:43:31;;;;;;;5.88;3.03;;;;;;;8.93;34.85;94187.41;4987308;28;20029;-78
2023/04/28 07:45:56;;;;;;;6.95;2.78;;;;;;;9.16;34.08;94214.88;4990687;28;20408;-78
2023/04/28 07:48:22;;;;;;;12.65;3.20;;;;;;;9.24;34.22;94202.81;4994051;28;20057;-78
2023/04/28 07:50:47;;;;;;;5.78;3.22;;;;;;;9.65;34.74;94221.34;5003108;28;20039;-77
2023/04/28 07:53:13;;;;;;;6.65;2.90;;;;;;;9.50;34.73;94201.22;5004690;28;20102;-76
2023/04/28 07:55:40;;;;;;;8.35;3.05;;;;;;;9.32;34.67;94205.56;4995995;28;20045;-79
2023/04/28 07:58:06;;;;;;;7.57;3.15;;;;;;;8.90;34.85;94197.84;4997936;28;20030;-79
2023/04/28 08:00:32;;;;;;;6.28;2.97;;;;;;;9.16;35.26;94196.28;4982945;28;20029;-78
2023/04/28 08:02:57;;;;;;;3.08;2.78;;;;;;;9.43;34.53;94211.44;4993413;28;20022;-75
2023/04/28 08:05:23;;;;;;;6.35;3.08;;;;;;;9.31;33.56;94188.03;4995723;28;20042;-77
2023/04/28 08:07:49;;;;;;;4.55;2.90;;;;;;;9.30;34.72;94213.00;4995723;28;20871;-79
2023/04/28 08:10:14;;;;;;;5.90;2.78;;;;;;;9.46;34.81;94202.88;4994701;28;20038;-78
2023/04/28 08:12:40;;;;;;;4.97;2.63;;;;;;;9.67;34.55;94219.19;4992429;28;21278;-79
2023/04/28 08:15:06;;;;;;;5.50;2.90;;;;;;;9.67;33.59;94211.22;4993046;28;20492;-77
2023/04/28 08:17:31;;;;;;;10.13;3.45;;;;;;;9.77;34.16;94219.78;4995845;28;20030;-78
2023/04/28 08:19:57;;;;;;;6.82;3.50;;;;;;;9.42;34.89;94220.50;4992661;28;20550;-78
2023/04/28 08:22:22;;;;;;;10.40;3.33;;;;;;;9.40;34.29;94212.81;4994451;28;20650;-78
2023/04/28 08:24:48;;;;;;;4.35;3.08;;;;;;;9.26;34.20;94212.03;4993594;28;20050;-80
2023/04/28 08:27:13;;;;;;;8.02;3.22;;;;;;;9.18;33.99;94199.47;4992061;28;20027;-78
2023/04/28 08:29:39;;;;;;;6.13;3.78;;;;;;;9.26;34.71;94211.25;4992342;28;20030;-78
2023/04/28 08:32:05;;;;;;;6.55;2.60;;;;;;;9.54;34.70;94215.47;4992273;28;20042;-78
2023/04/28 08:34:33;;;;;;;4.78;3.22;;;;;;;9.66;34.06;94217.63;5006651;28;20042;-76
2023/04/28 08:36:59;;;;;;;6.35;2.35;;;;;;;9.59;34.25;94214.56;4993182;28;20050;-78
2023/04/28 08:39:25;;;;;;;3.72;2.58;;;;;;;9.25;34.46;94199.84;4992892;28;20026;-77
2023/04/28 08:41:52;;;;;;;6.75;2.97;;;;;;;9.17;34.62;94216.44;4994165;28;20641;-79
2023/04/28 08:44:18;;;;;;;4.68;3.17;;;;;;;9.34;34.04;94198.06;4992796;28;20149;-80
2023/04/28 08:46:44;;;;;;;6.28;2.58;;;;;;;9.70;33.95;94218.59;4988901;28;20620;-79
2023/04/28 08:49:17;;;;;;;3.83;2.50;;;;;;;9.66;33.23;94210.44;4987027;28;20058;-79
2023/04/28 08:51:56;;;;;;;3.28;2.20;;;;;;;9.32;33.53;94199.44;5002353;28;20045;-77
2023/04/28 08:54:22;;;;;;;6.90;3.25;;;;;;;9.42;34.20;94210.66;4992435;28;20030;-79
2023/04/28 08:56:48;;;;;;;7.05;2.50;;;;;;;9.60;33.43;94208.19;5001407;28;20038;-78
2023/04/28 08:59:14;;;;;;;5.40;2.35;;;;;;;9.34;33.75;94194.66;4988189;28;20050;-77
2023/04/28 09:01:40;;;;;;;7.75;2.92;;;;;;;9.47;35.08;94185.88;4983869;28;20160;-79
2023/04/28 09:04:06;;;;;;;7.43;3.38;;;;;;;9.92;34.80;94191.31;4988152;28;20030;-78
2023/04/28 09:06:36;;;;;;;3.90;2.50;;;;;;;10.02;32.73;94177.81;4983010;28;20038;-78
2023/04/28 09:09:25;;;;;;;3.42;2.95;;;;;;;10.14;33.93;94199.31;4985986;28;20065;-77
2023/04/28 09:11:58;;;;;;;5.90;2.88;;;;;;;9.88;34.10;94191.91;4981722;28;20057;-78
2023/04/28 09:14:25;;;;;;;7.68;2.70;;;;;;;10.02;32.61;94183.91;4983524;28;20043;-79
2023/04/28 09:16:51;;;;;;;4.97;2.70;;;;;;;9.73;34.59;94178.19;4983440;28;20039;-78
2023/04/28 09:19:17;;;;;;;6.35;2.50;;;;;;;9.52;34.39;94177.03;4982528;28;20038;-79
2023/04/28 09:21:52;;;;;;;5.25;2.13;;;;;;;9.56;33.86;94135.50;4974850;28;20672;-79
2023/04/28 09:24:26;;;;;;;7.68;3.10;;;;;;;9.78;34.22;94186.81;4982016;28;20377;-76
2023/04/28 09:26:51;;;;;;;5.10;2.58;;;;;;;9.70;34.01;94157.50;4981295;28;20101;-78
2023/04/28 09:29:17;;;;;;;8.27;2.92;;;;;;;10.06;33.98;94158.31;4982749;28;20046;-80
2023/04/28 09:31:43;;;;;;;3.67;2.70;;;;;;;10.43;33.31;94169.69;4982287;28;20201;-79
2023/04/28 09:34:09;;;;;;;5.18;2.85;;;;;;;10.17;32.92;94178.22;4982531;28;20037;-79
2023/04/28 09:36:34;;;;;;;4.05;2.58;;;;;;;10.18;33.85;94161.19;4980587;28;20117;-76
2023/04/28 09:39:00;;;;;;;4.60;2.65;;;;;;;9.93;33.85;94131.78;4983480;28;20512;-77
2023/04/28 09:41:42;;;;;;;3.65;2.30;;;;;;;9.92;33.37;94138.97;4981417;28;20041;-78
2023/04/28 09:44:11;;;;;;;6.10;3.47;;;;;;;10.17;33.49;94167.59;4979113;28;20050;-79
2023/04/28 09:46:36;;;;;;;9.27;2.35;;;;;;;10.38;33.66;94157.31;4982834;28;20529;-78
2023/04/28 09:49:02;;;;;;;4.13;2.05;;;;;;;10.09;32.78;94127.66;4979249;28;20047;-79
2023/04/28 09:51:27;;;;;;;6.93;2.53;;;;;;;10.32;32.90;94137.19;4980180;28;20031;-78
2023/04/28 09:53:55;;;;;;;5.18;2.78;;;;;;;10.26;33.69;94149.84;4981151;28;20034;-78
2023/04/28 09:56:21;;;;;;;4.15;2.25;;;;;;;10.11;33.09;94125.50;4980377;28;20177;-79
2023/04/28 09:58:50;;;;;;;3.38;1.95;;;;;;;10.37;33.46;94145.09;4988971;28;20034;-76
2023/04/28 10:01:16;;;;;;;4.55;2.33;;;;;;;10.30;33.26;94129.56;5000288;28;20043;-78
2023/04/28 10:03:43;;;;;;;2.97;2.28;;;;;;;10.53;33.01;94121.56;4991533;28;20116;-79
2023/04/28 10:06:08;;;;;;;6.53;2.35;;;;;;;10.80;32.10;94116.09;4978747;28;20581;-79
2023/04/28 10:08:34;;;;;;;9.27;2.15;;;;;;;10.62;31.33;94130.38;4978532;28;20125;-79
2023/04/28 10:11:00;;;;;;;4.68;2.35;;;;;;;10.63;32.24;94127.41;4980469;28;20893;-79
2023/04/28 10:13:26;;;;;;;9.48;2.42;;;;;;;10.70;32.98;94117.16;4982717;28;20155;-78
2023/04/28 10:15:57;;;;;;;2.90;2.42;;;;;;;10.69;31.71;94114.78;4979263;28;20069;-78
2023/04/28 10:18:23;;;;;;;6.85;2.47;;;;;;;10.27;32.33;94114.19;4982154;28;20038;-78
2023/04/28 10:20:52;;;;;;;5.35;2.72;;;;;;;10.42;32.03;94121.03;4982580;28;20664;-78
2023/04/28 10:23:54;;;;;;;6.18;2.22;;;;;;;10.37;32.12;94125.72;4980803;28;20038;-77
2023/04/28 10:26:22;;;;;;;4.30;2.65;;;;;;;10.30;32.44;94073.72;4983578;28;20062;-78
2023/04/28 10:28:49;;;;;;;3.72;2.47;;;;;;;10.68;32.17;94116.66;4990645;28;20054;-79
2023/04/28 10:31:19;;;;;;;4.75;2.60;;;;;;;10.78;31.98;94110.28;4979771;28;20038;-77
2023/04/28 10:33:44;;;;;;;3.70;1.92;;;;;;;11.04;30.79;94116.50;4988636;28;20045;-79
2023/04/28 10:36:30;;;;;;;10.45;2.72;;;;;;;10.96;31.22;94093.28;4982138;28;20026;-79
2023/04/28 10:39:11;;;;;;;3.97;1.77;;;;;;;11.21;32.46;94097.13;4984159;28;20046;-79
2023/04/28 10:41:36;;;;;;;3.28;2.25;;;;;;;10.77;31.49;94116.69;4979655;28;20057;-78
2023/04/28 10:44:27;;;;;;;6.53;2.72;;;;;;;10.95;31.85;94102.38;4983082;28;20027;-79
2023/04/28 10:47:08;;;;;;;7.57;2.22;;;;;;;11.23;31.15;94097.59;4982877;28;20034;-78
2023/04/28 10:49:59;;;;;;;4.65;2.40;;;;;;;11.27;30.22;94095.09;4980654;28;20042;-78
2023/04/28 10:52:40;;;;;;;2.97;2.50;;;;;;;11.30;29.42;94086.47;4981376;28;20041;-79
2023/04/28 10:55:38;;;;;;;7.47;2.03;;;;;;;11.41;29.08;94079.78;4980954;28;20102;-77
2023/04/28 10:58:19;;;;;;;3.83;1.75;;;;;;;11.48;28.91;94088.09;4985660;28;20045;-78
2023/04/28 11:00:47;;;;;;;3.95;1.70;;;;;;;11.36;29.21;94085.25;4986980;28;20038;-77
2023/04/28 11:03:50;;;;;;;5.75;2.58;;;;;;;11.43;29.56;94074.94;4989111;28;20623;-79
2023/04/28 11:06:27;;;;;;;9.07;2.88;;;;;;;11.38;30.75;94080.41;4990401;28;20323;-78
2023/04/28 11:09:16;;;;;;;6.28;1.75;;;;;;;11.63;29.04;94068.25;4995006;28;20037;-78
2023/04/28 11:12:00;;;;;;;6.13;1.60;;;;;;;11.87;30.01;94065.88;4941480;28;20046;-79
2023/04/28 11:14:28;;;;;;;2.83;1.83;;;;;;;11.71;29.56;94065.56;4984910;28;20066;-77
2023/04/28 11:17:00;;;;;;;4.20;2.30;;;;;;;11.81;29.55;94065.25;4984779;28;20245;-79
2023/04/28 11:19:30;;;;;;;3.40;2.20;;;;;;;11.68;30.27;94063.53;4993681;28;20069;-79
2023/04/28 11:21:57;;;;;;;6.40;2.30;;;;;;;11.69;30.78;94062.44;4984719;28;20096;-79
2023/04/28 11:24:24;;;;;;;5.38;1.95;;;;;;;11.92;30.72;94066.50;4987152;28;20293;-78
2023/04/28 11:26:51;;;;;;;3.70;1.58;;;;;;;11.93;28.17;94054.72;4985277;28;20132;-78
2023/04/28 11:29:16;;;;;;;3.78;1.80;;;;;;;12.04;27.86;94057.88;4982386;28;20081;-78
2023/04/28 11:31:50;;;;;;;2.58;1.52;;;;;;;12.15;28.11;94053.00;4986307;28;20628;-78
2023/04/28 11:34:19;;;;;;;5.95;1.88;;;;;;;12.07;28.93;94033.25;4988365;28;20034;-76
2023/04/28 11:36:45;;;;;;;3.85;2.00;;;;;;;12.02;29.65;94050.19;4980480;28;20046;-76
2023/04/28 11:39:12;;;;;;;4.93;1.98;;;;;;;11.72;28.92;94003.19;4986558;28;20023;-78